sensor_id;sensor_type;location;lat;lon;timestamp;noise_LAeq;noise_LA_min;noise_LA_max;noise_LA01;noise_LA95
41518;Laerm;27249;48.094;-1.690;2022-09-09T00:03:53;46.88;41.46;57.69;;
41518;Laerm;27249;48.094;-1.690;2022-09-09T00:06:28;44.62;41.82;53.38;;
41518;Laerm;27249;48.094;-1.690;2022-09-09T00:12:09;45.69;41.22;55.90;;
41518;Laerm;27249;48.094;-1.690;2022-09-09T00:14:20;50.89;41.82;64.14;;
41518;Laerm;27249;48.094;-1.690;2022-09-09T00:16:50;48.12;41.46;62.13;;
41518;Laerm;27249;48.094;-1.690;2022-09-09T00:19:23;49.36;41.53;64.33;;
41518;Laerm;27249;48.094;-1.690;2022-09-09T00:22:01;50.76;40.03;63.87;;
41518;Laerm;27249;48.094;-1.690;2022-09-09T00:24:32;51.02;40.53;63.31;;
41518;Laerm;27249;48.094;-1.690;2022-09-09T00:27:06;48.23;41.46;61.78;;
41518;Laerm;27249;48.094;-1.690;2022-09-09T00:29:35;47.31;41.30;61.09;;
41518;Laerm;27249;48.094;-1.690;2022-09-09T00:32:18;45.40;41.68;55.45;;
41518;Laerm;27249;48.094;-1.690;2022-09-09T00:34:54;44.25;41.14;60.30;;
41518;Laerm;27249;48.094;-1.690;2022-09-09T00:37:21;48.82;41.22;60.32;;
41518;Laerm;27249;48.094;-1.690;2022-09-09T00:39:47;50.06;41.89;61.31;;
41518;Laerm;27249;48.094;-1.690;2022-09-09T00:49:41;44.14;41.06;59.10;;
41518;Laerm;27249;48.094;-1.690;2022-09-09T00:57:27;44.63;40.03;58.89;;
41518;Laerm;27249;48.094;-1.690;2022-09-09T00:59:58;48.84;41.38;58.56;;
41518;Laerm;27249;48.094;-1.690;2022-09-09T01:02:32;46.23;40.71;56.96;;
41518;Laerm;27249;48.094;-1.690;2022-09-09T01:05:05;50.06;41.89;66.22;;
41518;Laerm;27249;48.094;-1.690;2022-09-09T01:07:34;47.71;41.68;57.16;;
41518;Laerm;27249;48.094;-1.690;2022-09-09T01:10:00;50.72;41.61;62.21;;
41518;Laerm;27249;48.094;-1.690;2022-09-09T01:12:34;51.15;41.14;62.76;;
41518;Laerm;27249;48.094;-1.690;2022-09-09T01:15:10;47.09;40.62;65.14;;
41518;Laerm;27249;48.094;-1.690;2022-09-09T01:17:46;46.72;41.53;59.38;;
41518;Laerm;27249;48.094;-1.690;2022-09-09T01:20:15;48.08;40.89;59.78;;
41518;Laerm;27249;48.094;-1.690;2022-09-09T01:28:00;43.96;40.89;49.32;;
41518;Laerm;27249;48.094;-1.690;2022-09-09T01:30:27;44.64;41.68;58.12;;
41518;Laerm;27249;48.094;-1.690;2022-09-09T01:32:56;52.53;41.38;68.67;;
41518;Laerm;27249;48.094;-1.690;2022-09-09T01:35:29;48.63;41.61;60.51;;
41518;Laerm;27249;48.094;-1.690;2022-09-09T01:37:56;49.30;41.30;62.43;;
41518;Laerm;27249;48.094;-1.690;2022-09-09T01:40:22;48.74;40.98;63.23;;
41518;Laerm;27249;48.094;-1.690;2022-09-09T01:42:47;44.65;40.80;62.31;;
41518;Laerm;27249;48.094;-1.690;2022-09-09T01:45:13;46.68;40.53;56.57;;
41518;Laerm;27249;48.094;-1.690;2022-09-09T01:47:38;50.09;41.14;62.55;;
41518;Laerm;27249;48.094;-1.690;2022-09-09T01:50:04;49.32;41.06;60.21;;
41518;Laerm;27249;48.094;-1.690;2022-09-09T01:52:29;47.85;41.38;66.38;;
41518;Laerm;27249;48.094;-1.690;2022-09-09T01:54:55;47.60;42.16;58.15;;
41518;Laerm;27249;48.094;-1.690;2022-09-09T02:00:08;50.81;42.16;63.04;;
41518;Laerm;27249;48.094;-1.690;2022-09-09T02:08:09;47.83;41.89;62.01;;
41518;Laerm;27249;48.094;-1.690;2022-09-09T02:13:12;46.14;42.09;58.78;;
41518;Laerm;27249;48.094;-1.690;2022-09-09T02:18:09;50.33;43.14;59.17;;
41518;Laerm;27249;48.094;-1.690;2022-09-09T02:20:36;47.59;42.03;66.54;;
41518;Laerm;27249;48.094;-1.690;2022-09-09T02:23:02;46.70;42.29;70.39;;
41518;Laerm;27249;48.094;-1.690;2022-09-09T02:25:28;49.33;42.65;62.15;;
41518;Laerm;27249;48.094;-1.690;2022-09-09T02:27:57;50.28;42.59;72.14;;
41518;Laerm;27249;48.094;-1.690;2022-09-09T02:30:25;50.01;42.82;64.03;;
41518;Laerm;27249;48.094;-1.690;2022-09-09T02:32:52;48.32;42.88;68.82;;
41518;Laerm;27249;48.094;-1.690;2022-09-09T02:35:22;54.30;42.71;69.35;;
41518;Laerm;27249;48.094;-1.690;2022-09-09T02:37:49;50.24;42.41;64.65;;
41518;Laerm;27249;48.094;-1.690;2022-09-09T02:40:15;49.78;41.38;62.45;;
41518;Laerm;27249;48.094;-1.690;2022-09-09T02:42:42;56.31;43.09;68.94;;
41518;Laerm;27249;48.094;-1.690;2022-09-09T02:45:08;48.18;42.16;65.30;;
41518;Laerm;27249;48.094;-1.690;2022-09-09T02:47:36;47.53;42.03;62.35;;
41518;Laerm;27249;48.094;-1.690;2022-09-09T02:50:12;49.45;42.53;59.90;;
41518;Laerm;27249;48.094;-1.690;2022-09-09T02:55:07;51.14;42.76;62.53;;
41518;Laerm;27249;48.094;-1.690;2022-09-09T02:57:36;49.46;42.76;61.05;;
41518;Laerm;27249;48.094;-1.690;2022-09-09T03:00:02;53.60;42.98;63.35;;
41518;Laerm;27249;48.094;-1.690;2022-09-09T03:02:28;48.25;40.71;61.00;;
41518;Laerm;27249;48.094;-1.690;2022-09-09T03:04:54;50.22;42.76;63.87;;
41518;Laerm;27249;48.094;-1.690;2022-09-09T03:07:19;48.32;42.29;64.92;;
41518;Laerm;27249;48.094;-1.690;2022-09-09T03:09:45;47.55;42.16;56.75;;
41518;Laerm;27249;48.094;-1.690;2022-09-09T03:12:10;48.25;42.41;61.63;;
41518;Laerm;27249;48.094;-1.690;2022-09-09T03:14:38;49.96;42.59;66.57;;
41518;Laerm;27249;48.094;-1.690;2022-09-09T03:17:06;50.76;42.88;67.64;;
41518;Laerm;27249;48.094;-1.690;2022-09-09T03:19:32;47.65;42.41;65.91;;
41518;Laerm;27249;48.094;-1.690;2022-09-09T03:21:57;48.37;42.47;65.98;;
41518;Laerm;27249;48.094;-1.690;2022-09-09T03:24:23;49.08;42.76;62.44;;
41518;Laerm;27249;48.094;-1.690;2022-09-09T03:26:48;52.34;43.63;68.59;;
41518;Laerm;27249;48.094;-1.690;2022-09-09T03:29:15;52.10;43.68;64.06;;
41518;Laerm;27249;48.094;-1.690;2022-09-09T03:31:41;48.81;42.93;60.79;;
41518;Laerm;27249;48.094;-1.690;2022-09-09T03:34:07;50.04;41.96;59.31;;
41518;Laerm;27249;48.094;-1.690;2022-09-09T03:36:33;52.49;43.99;62.44;;
41518;Laerm;27249;48.094;-1.690;2022-09-09T03:38:58;50.99;43.24;59.04;;
41518;Laerm;27249;48.094;-1.690;2022-09-09T03:41:24;48.22;42.35;60.77;;
41518;Laerm;27249;48.094;-1.690;2022-09-09T03:43:50;50.66;43.39;62.76;;
41518;Laerm;27249;48.094;-1.690;2022-09-09T03:46:16;53.67;43.09;65.05;;
41518;Laerm;27249;48.094;-1.690;2022-09-09T03:48:41;50.29;43.24;61.10;;
41518;Laerm;27249;48.094;-1.690;2022-09-09T03:51:06;50.43;43.49;61.19;;
41518;Laerm;27249;48.094;-1.690;2022-09-09T03:53:32;48.61;43.29;59.03;;
41518;Laerm;27249;48.094;-1.690;2022-09-09T03:55:58;49.22;43.29;60.15;;
41518;Laerm;27249;48.094;-1.690;2022-09-09T03:58:25;52.45;42.59;64.11;;
41518;Laerm;27249;48.094;-1.690;2022-09-09T04:00:58;51.09;43.34;63.14;;
41518;Laerm;27249;48.094;-1.690;2022-09-09T04:03:24;47.54;42.65;60.62;;
41518;Laerm;27249;48.094;-1.690;2022-09-09T04:05:53;54.87;43.34;69.69;;
41518;Laerm;27249;48.094;-1.690;2022-09-09T04:08:19;53.61;44.07;65.89;;
41518;Laerm;27249;48.094;-1.690;2022-09-09T04:10:45;51.67;44.47;60.05;;
41518;Laerm;27249;48.094;-1.690;2022-09-09T04:13:11;52.27;44.39;62.06;;
41518;Laerm;27249;48.094;-1.690;2022-09-09T04:15:37;53.52;44.62;61.48;;
41518;Laerm;27249;48.094;-1.690;2022-09-09T04:18:02;55.87;45.48;66.63;;
41518;Laerm;27249;48.094;-1.690;2022-09-09T04:20:28;50.99;44.83;61.15;;
41518;Laerm;27249;48.094;-1.690;2022-09-09T04:22:53;52.07;44.43;67.19;;
41518;Laerm;27249;48.094;-1.690;2022-09-09T04:25:18;56.00;44.94;65.19;;
41518;Laerm;27249;48.094;-1.690;2022-09-09T04:27:43;51.85;44.80;61.22;;
41518;Laerm;27249;48.094;-1.690;2022-09-09T04:30:09;50.89;44.51;60.03;;
41518;Laerm;27249;48.094;-1.690;2022-09-09T04:32:35;54.42;45.66;64.77;;
41518;Laerm;27249;48.094;-1.690;2022-09-09T04:35:01;53.03;45.14;62.44;;
41518;Laerm;27249;48.094;-1.690;2022-09-09T04:37:27;51.28;45.17;58.88;;
41518;Laerm;27249;48.094;-1.690;2022-09-09T04:39:52;52.08;45.51;64.39;;
41518;Laerm;27249;48.094;-1.690;2022-09-09T04:42:17;54.83;45.75;78.48;;
41518;Laerm;27249;48.094;-1.690;2022-09-09T04:44:44;55.97;47.00;63.90;;
41518;Laerm;27249;48.094;-1.690;2022-09-09T04:47:09;55.19;47.12;63.22;;
41518;Laerm;27249;48.094;-1.690;2022-09-09T04:49:35;52.22;46.20;61.20;;
41518;Laerm;27249;48.094;-1.690;2022-09-09T04:52:02;53.83;47.06;63.46;;
41518;Laerm;27249;48.094;-1.690;2022-09-09T04:54:27;55.00;48.58;63.65;;
41518;Laerm;27249;48.094;-1.690;2022-09-09T04:56:53;51.99;45.72;63.10;;
41518;Laerm;27249;48.094;-1.690;2022-09-09T04:59:19;54.26;46.02;67.61;;
41518;Laerm;27249;48.094;-1.690;2022-09-09T05:01:45;54.13;45.99;62.44;;
41518;Laerm;27249;48.094;-1.690;2022-09-09T05:04:10;54.56;46.28;66.45;;
41518;Laerm;27249;48.094;-1.690;2022-09-09T05:06:36;53.08;45.99;61.03;;
41518;Laerm;27249;48.094;-1.690;2022-09-09T05:09:01;56.30;47.74;64.78;;
41518;Laerm;27249;48.094;-1.690;2022-09-09T05:11:27;54.80;47.72;67.79;;
41518;Laerm;27249;48.094;-1.690;2022-09-09T05:13:53;55.68;46.69;63.32;;
41518;Laerm;27249;48.094;-1.690;2022-09-09T05:16:19;56.47;49.98;62.13;;
41518;Laerm;27249;48.094;-1.690;2022-09-09T05:18:44;57.39;50.26;67.82;;
41518;Laerm;27249;48.094;-1.690;2022-09-09T05:21:11;56.40;50.16;64.05;;
41518;Laerm;27249;48.094;-1.690;2022-09-09T05:23:37;57.32;49.03;68.13;;
41518;Laerm;27249;48.094;-1.690;2022-09-09T05:26:02;57.49;49.78;64.39;;
41518;Laerm;27249;48.094;-1.690;2022-09-09T05:28:28;56.13;48.83;63.96;;
41518;Laerm;27249;48.094;-1.690;2022-09-09T05:30:57;55.87;50.83;64.24;;
41518;Laerm;27249;48.094;-1.690;2022-09-09T05:33:23;57.46;50.75;65.38;;
41518;Laerm;27249;48.094;-1.690;2022-09-09T05:35:59;57.10;50.19;62.78;;
41518;Laerm;27249;48.094;-1.690;2022-09-09T05:38:25;58.62;52.59;69.05;;
41518;Laerm;27249;48.094;-1.690;2022-09-09T05:40:50;56.20;50.35;61.84;;
41518;Laerm;27249;48.094;-1.690;2022-09-09T05:43:17;57.12;51.13;65.39;;
41518;Laerm;27249;48.094;-1.690;2022-09-09T05:45:42;60.40;50.22;71.91;;
41518;Laerm;27249;48.094;-1.690;2022-09-09T05:48:07;59.55;52.62;71.37;;
41518;Laerm;27249;48.094;-1.690;2022-09-09T05:50:33;57.16;51.55;66.68;;
41518;Laerm;27249;48.094;-1.690;2022-09-09T05:52:58;59.20;52.33;65.02;;
41518;Laerm;27249;48.094;-1.690;2022-09-09T05:55:24;57.95;52.02;71.68;;
41518;Laerm;27249;48.094;-1.690;2022-09-09T05:57:50;58.02;50.40;66.34;;
41518;Laerm;27249;48.094;-1.690;2022-09-09T06:00:17;57.23;52.02;65.52;;
41518;Laerm;27249;48.094;-1.690;2022-09-09T06:02:42;58.20;53.31;67.18;;
41518;Laerm;27249;48.094;-1.690;2022-09-09T06:05:07;57.01;50.00;64.97;;
41518;Laerm;27249;48.094;-1.690;2022-09-09T06:07:33;57.27;50.11;63.89;;
41518;Laerm;27249;48.094;-1.690;2022-09-09T06:09:58;56.62;51.37;70.86;;
41518;Laerm;27249;48.094;-1.690;2022-09-09T06:12:25;58.28;52.45;64.34;;
41518;Laerm;27249;48.094;-1.690;2022-09-09T06:14:50;58.21;52.25;67.88;;
41518;Laerm;27249;48.094;-1.690;2022-09-09T06:17:16;61.65;52.75;85.25;;
41518;Laerm;27249;48.094;-1.690;2022-09-09T06:19:42;58.92;53.35;65.21;;
41518;Laerm;27249;48.094;-1.690;2022-09-09T06:22:07;57.61;52.09;65.76;;
41518;Laerm;27249;48.094;-1.690;2022-09-09T06:24:34;57.72;51.04;72.39;;
41518;Laerm;27249;48.094;-1.690;2022-09-09T06:26:59;56.86;49.90;62.81;;
41518;Laerm;27249;48.094;-1.690;2022-09-09T06:29:25;57.40;50.43;63.39;;
41518;Laerm;27249;48.094;-1.690;2022-09-09T06:31:50;57.42;51.82;65.58;;
41518;Laerm;27249;48.094;-1.690;2022-09-09T06:34:15;57.00;49.39;65.06;;
41518;Laerm;27249;48.094;-1.690;2022-09-09T06:36:41;57.45;51.27;63.34;;
41518;Laerm;27249;48.094;-1.690;2022-09-09T06:39:06;57.49;50.58;65.94;;
41518;Laerm;27249;48.094;-1.690;2022-09-09T06:41:33;57.98;51.00;62.45;;
41518;Laerm;27249;48.094;-1.690;2022-09-09T06:43:58;57.62;50.38;65.04;;
41518;Laerm;27249;48.094;-1.690;2022-09-09T06:46:25;57.63;51.67;63.03;;
41518;Laerm;27249;48.094;-1.690;2022-09-09T06:48:53;58.18;51.78;63.78;;
41518;Laerm;27249;48.094;-1.690;2022-09-09T06:51:21;57.31;50.54;63.89;;
41518;Laerm;27249;48.094;-1.690;2022-09-09T06:53:46;58.77;53.88;65.62;;
41518;Laerm;27249;48.094;-1.690;2022-09-09T06:56:28;58.14;52.15;65.91;;
41518;Laerm;27249;48.094;-1.690;2022-09-09T06:58:55;57.37;50.92;63.22;;
41518;Laerm;27249;48.094;-1.690;2022-09-09T07:01:24;58.03;51.74;64.53;;
41518;Laerm;27249;48.094;-1.690;2022-09-09T07:03:51;59.44;52.33;74.04;;
41518;Laerm;27249;48.094;-1.690;2022-09-09T07:08:48;57.13;50.75;67.24;;
41518;Laerm;27249;48.094;-1.690;2022-09-09T07:11:14;56.87;48.91;66.84;;
41518;Laerm;27249;48.094;-1.690;2022-09-09T07:13:39;56.81;50.55;62.38;;
41518;Laerm;27249;48.094;-1.690;2022-09-09T07:16:09;58.39;50.87;67.39;;
41518;Laerm;27249;48.094;-1.690;2022-09-09T07:18:34;56.81;49.64;66.11;;
41518;Laerm;27249;48.094;-1.690;2022-09-09T07:21:00;57.16;48.98;63.45;;
41518;Laerm;27249;48.094;-1.690;2022-09-09T07:23:27;57.48;50.62;68.69;;
41518;Laerm;27249;48.094;-1.690;2022-09-09T07:25:52;59.06;51.03;73.39;;
41518;Laerm;27249;48.094;-1.690;2022-09-09T07:28:18;56.05;49.07;71.29;;
41518;Laerm;27249;48.094;-1.690;2022-09-09T07:30:43;57.55;51.09;74.58;;
41518;Laerm;27249;48.094;-1.690;2022-09-09T07:33:09;57.30;51.40;73.55;;
41518;Laerm;27249;48.094;-1.690;2022-09-09T07:35:37;57.76;49.59;68.32;;
41518;Laerm;27249;48.094;-1.690;2022-09-09T07:38:03;57.94;51.98;70.65;;
41518;Laerm;27249;48.094;-1.690;2022-09-09T07:40:32;58.59;50.57;78.66;;
41518;Laerm;27249;48.094;-1.690;2022-09-09T07:42:57;56.71;50.04;71.51;;
41518;Laerm;27249;48.094;-1.690;2022-09-09T07:45:22;57.08;49.96;68.49;;
41518;Laerm;27249;48.094;-1.690;2022-09-09T07:47:47;57.83;50.29;64.76;;
41518;Laerm;27249;48.094;-1.690;2022-09-09T07:50:13;57.71;53.02;65.35;;
41518;Laerm;27249;48.094;-1.690;2022-09-09T07:52:39;56.35;50.06;69.81;;
41518;Laerm;27249;48.094;-1.690;2022-09-09T07:55:05;58.83;50.52;79.49;;
41518;Laerm;27249;48.094;-1.690;2022-09-09T07:57:30;57.35;50.48;76.42;;
41518;Laerm;27249;48.094;-1.690;2022-09-09T07:59:56;60.03;50.53;71.53;;
41518;Laerm;27249;48.094;-1.690;2022-09-09T08:02:21;57.91;52.74;66.66;;
41518;Laerm;27249;48.094;-1.690;2022-09-09T08:04:47;58.56;53.19;74.19;;
41518;Laerm;27249;48.094;-1.690;2022-09-09T08:07:13;62.04;53.17;83.83;;
41518;Laerm;27249;48.094;-1.690;2022-09-09T08:09:38;60.46;51.71;80.66;;
41518;Laerm;27249;48.094;-1.690;2022-09-09T08:12:04;57.90;50.04;78.11;;
41518;Laerm;27249;48.094;-1.690;2022-09-09T08:14:30;60.10;51.38;81.96;;
41518;Laerm;27249;48.094;-1.690;2022-09-09T08:16:55;58.68;52.08;75.36;;
41518;Laerm;27249;48.094;-1.690;2022-09-09T08:19:22;58.50;52.15;71.38;;
41518;Laerm;27249;48.094;-1.690;2022-09-09T08:21:47;58.65;51.29;67.92;;
41518;Laerm;27249;48.094;-1.690;2022-09-09T08:24:13;57.31;51.91;65.92;;
41518;Laerm;27249;48.094;-1.690;2022-09-09T08:26:41;56.73;49.65;73.73;;
41518;Laerm;27249;48.094;-1.690;2022-09-09T08:29:07;58.97;51.13;76.43;;
41518;Laerm;27249;48.094;-1.690;2022-09-09T08:31:33;56.76;49.50;73.33;;
41518;Laerm;27249;48.094;-1.690;2022-09-09T08:33:59;57.25;50.57;63.84;;
41518;Laerm;27249;48.094;-1.690;2022-09-09T08:36:27;57.34;49.67;67.56;;
41518;Laerm;27249;48.094;-1.690;2022-09-09T08:38:53;56.91;48.43;64.43;;
41518;Laerm;27249;48.094;-1.690;2022-09-09T08:43:47;56.52;51.23;66.50;;
41518;Laerm;27249;48.094;-1.690;2022-09-09T08:46:18;58.39;50.67;78.15;;
41518;Laerm;27249;48.094;-1.690;2022-09-09T08:48:57;57.56;49.12;67.10;;
41518;Laerm;27249;48.094;-1.690;2022-09-09T08:51:25;57.99;52.54;66.87;;
41518;Laerm;27249;48.094;-1.690;2022-09-09T08:53:52;56.88;49.88;72.52;;
41518;Laerm;27249;48.094;-1.690;2022-09-09T08:56:21;58.52;48.55;73.25;;
41518;Laerm;27249;48.094;-1.690;2022-09-09T08:58:52;57.45;52.34;75.80;;
41518;Laerm;27249;48.094;-1.690;2022-09-09T09:09:26;65.63;51.78;83.85;;
41518;Laerm;27249;48.094;-1.690;2022-09-09T09:11:58;57.99;50.40;74.18;;
41518;Laerm;27249;48.094;-1.690;2022-09-09T09:14:26;58.53;48.94;78.92;;
41518;Laerm;27249;48.094;-1.690;2022-09-09T09:19:17;57.71;49.63;71.11;;
41518;Laerm;27249;48.094;-1.690;2022-09-09T09:21:44;60.05;49.65;80.29;;
41518;Laerm;27249;48.094;-1.690;2022-09-09T09:26:41;57.31;51.68;69.70;;
41518;Laerm;27249;48.094;-1.690;2022-09-09T09:29:12;59.06;52.33;73.37;;
41518;Laerm;27249;48.094;-1.690;2022-09-09T09:31:37;57.89;49.91;74.30;;
41518;Laerm;27249;48.094;-1.690;2022-09-09T09:34:03;57.69;50.85;72.82;;
41518;Laerm;27249;48.094;-1.690;2022-09-09T09:36:44;56.97;51.71;63.75;;
41518;Laerm;27249;48.094;-1.690;2022-09-09T09:39:22;58.07;50.88;65.13;;
41518;Laerm;27249;48.094;-1.690;2022-09-09T09:41:48;58.02;52.97;67.66;;
41518;Laerm;27249;48.094;-1.690;2022-09-09T09:44:46;58.02;52.41;68.68;;
41518;Laerm;27249;48.094;-1.690;2022-09-09T09:47:15;58.45;49.80;66.36;;
41518;Laerm;27249;48.094;-1.690;2022-09-09T09:49:57;57.59;52.50;75.66;;
41518;Laerm;27249;48.094;-1.690;2022-09-09T09:52:25;58.45;52.79;69.46;;
41518;Laerm;27249;48.094;-1.690;2022-09-09T09:54:51;58.20;50.71;75.65;;
41518;Laerm;27249;48.094;-1.690;2022-09-09T09:57:17;56.37;50.55;70.75;;
41518;Laerm;27249;48.094;-1.690;2022-09-09T09:59:43;58.13;54.09;71.21;;
41518;Laerm;27249;48.094;-1.690;2022-09-09T10:02:22;58.28;51.98;70.77;;
41518;Laerm;27249;48.094;-1.690;2022-09-09T10:05:35;59.22;50.38;75.66;;
41518;Laerm;27249;48.094;-1.690;2022-09-09T10:07:36;57.62;52.81;64.70;;
41518;Laerm;27249;48.094;-1.690;2022-09-09T10:10:02;58.34;52.06;68.61;;
41518;Laerm;27249;48.094;-1.690;2022-09-09T10:12:43;63.86;52.45;81.64;;
41518;Laerm;27249;48.094;-1.690;2022-09-09T10:20:32;58.53;51.63;77.15;;
41518;Laerm;27249;48.094;-1.690;2022-09-09T10:25:52;60.83;51.34;86.29;;
41518;Laerm;27249;48.094;-1.690;2022-09-09T10:35:58;58.16;51.80;76.86;;
41518;Laerm;27249;48.094;-1.690;2022-09-09T10:38:37;60.28;50.38;88.57;;
41518;Laerm;27249;48.094;-1.690;2022-09-09T10:41:09;58.76;52.51;78.08;;
41518;Laerm;27249;48.094;-1.690;2022-09-09T10:48:58;58.35;51.89;72.20;;
41518;Laerm;27249;48.094;-1.690;2022-09-09T10:56:44;58.69;51.27;76.83;;
41518;Laerm;27249;48.094;-1.690;2022-09-09T10:59:17;57.92;51.10;72.81;;
41518;Laerm;27249;48.094;-1.690;2022-09-09T11:01:47;57.78;52.60;70.87;;
41518;Laerm;27249;48.094;-1.690;2022-09-09T11:04:22;57.58;50.51;75.12;;
41518;Laerm;27249;48.094;-1.690;2022-09-09T11:06:50;57.39;51.63;71.43;;
41518;Laerm;27249;48.094;-1.690;2022-09-09T11:09:20;58.95;49.34;82.44;;
41518;Laerm;27249;48.094;-1.690;2022-09-09T11:11:56;57.34;52.37;70.27;;
41518;Laerm;27249;48.094;-1.690;2022-09-09T11:14:30;56.34;50.05;70.79;;
41518;Laerm;27249;48.094;-1.690;2022-09-09T11:16:59;58.00;53.02;69.90;;
41518;Laerm;27249;48.094;-1.690;2022-09-09T11:19:35;58.62;49.43;85.43;;
41518;Laerm;27249;48.094;-1.690;2022-09-09T11:22:02;57.07;50.54;64.31;;
41518;Laerm;27249;48.094;-1.690;2022-09-09T11:27:11;56.78;48.12;66.67;;
41518;Laerm;27249;48.094;-1.690;2022-09-09T11:35:02;56.15;50.85;68.10;;
41518;Laerm;27249;48.094;-1.690;2022-09-09T11:40:16;58.83;52.02;71.74;;
41518;Laerm;27249;48.094;-1.690;2022-09-09T11:42:44;57.23;50.25;70.41;;
41518;Laerm;27249;48.094;-1.690;2022-09-09T11:45:10;58.00;49.85;71.75;;
41518;Laerm;27249;48.094;-1.690;2022-09-09T11:47:36;57.63;48.90;73.22;;
41518;Laerm;27249;48.094;-1.690;2022-09-09T11:55:08;57.68;49.93;68.18;;
41518;Laerm;27249;48.094;-1.690;2022-09-09T11:57:34;55.62;49.46;63.27;;
41518;Laerm;27249;48.094;-1.690;2022-09-09T12:00:00;56.62;51.80;63.72;;
41518;Laerm;27249;48.094;-1.690;2022-09-09T12:02:26;57.33;50.49;73.08;;
41518;Laerm;27249;48.094;-1.690;2022-09-09T12:04:57;57.30;48.49;67.53;;
41518;Laerm;27249;48.094;-1.690;2022-09-09T12:09:51;57.24;49.16;65.14;;
41518;Laerm;27249;48.094;-1.690;2022-09-09T12:17:21;57.44;52.24;67.74;;
41518;Laerm;27249;48.094;-1.690;2022-09-09T12:19:47;55.96;48.25;70.00;;
41518;Laerm;27249;48.094;-1.690;2022-09-09T12:24:42;56.97;50.11;65.84;;
41518;Laerm;27249;48.094;-1.690;2022-09-09T12:29:50;57.40;50.62;66.87;;
41518;Laerm;27249;48.094;-1.690;2022-09-09T12:32:22;57.79;50.17;73.38;;
41518;Laerm;27249;48.094;-1.690;2022-09-09T12:34:49;57.72;49.78;74.81;;
41518;Laerm;27249;48.094;-1.690;2022-09-09T12:37:24;57.65;51.97;69.69;;
41518;Laerm;27249;48.094;-1.690;2022-09-09T12:39:59;58.62;52.86;73.19;;
41518;Laerm;27249;48.094;-1.690;2022-09-09T12:42:25;56.57;48.32;77.22;;
41518;Laerm;27249;48.094;-1.690;2022-09-09T12:44:51;57.95;49.92;66.75;;
41518;Laerm;27249;48.094;-1.690;2022-09-09T12:47:16;58.07;50.85;71.60;;
41518;Laerm;27249;48.094;-1.690;2022-09-09T12:49:43;57.48;50.43;66.50;;
41518;Laerm;27249;48.094;-1.690;2022-09-09T12:52:14;57.76;50.54;72.30;;
41518;Laerm;27249;48.094;-1.690;2022-09-09T12:54:56;56.78;51.67;66.35;;
41518;Laerm;27249;48.094;-1.690;2022-09-09T12:57:22;57.86;49.55;71.92;;
41518;Laerm;27249;48.094;-1.690;2022-09-09T12:59:49;59.56;51.20;82.01;;
41518;Laerm;27249;48.094;-1.690;2022-09-09T13:02:22;60.89;51.30;82.77;;
41518;Laerm;27249;48.094;-1.690;2022-09-09T13:04:47;58.78;52.29;73.13;;
41518;Laerm;27249;48.094;-1.690;2022-09-09T13:07:15;58.82;49.69;83.57;;
41518;Laerm;27249;48.094;-1.690;2022-09-09T13:09:41;59.70;49.08;80.18;;
41518;Laerm;27249;48.094;-1.690;2022-09-09T13:12:07;57.79;52.35;68.33;;
41518;Laerm;27249;48.094;-1.690;2022-09-09T13:14:38;59.44;53.74;74.77;;
41518;Laerm;27249;48.094;-1.690;2022-09-09T13:17:03;60.58;50.54;80.98;;
41518;Laerm;27249;48.094;-1.690;2022-09-09T13:19:30;59.08;51.94;71.15;;
41518;Laerm;27249;48.094;-1.690;2022-09-09T13:21:57;58.12;49.33;78.33;;
41518;Laerm;27249;48.094;-1.690;2022-09-09T13:27:02;55.77;50.10;62.25;;
41518;Laerm;27249;48.094;-1.690;2022-09-09T13:29:28;58.37;51.52;70.31;;
41518;Laerm;27249;48.094;-1.690;2022-09-09T13:31:54;61.45;49.81;80.53;;
41518;Laerm;27249;48.094;-1.690;2022-09-09T13:34:29;58.90;52.98;78.01;;
41518;Laerm;27249;48.094;-1.690;2022-09-09T13:37:05;59.84;52.17;77.08;;
41518;Laerm;27249;48.094;-1.690;2022-09-09T13:39:32;60.48;49.43;76.65;;
41518;Laerm;27249;48.094;-1.690;2022-09-09T13:41:58;60.70;54.99;70.34;;
41518;Laerm;27249;48.094;-1.690;2022-09-09T13:44:24;60.39;54.09;70.30;;
41518;Laerm;27249;48.094;-1.690;2022-09-09T13:47:01;63.79;55.00;71.14;;
41518;Laerm;27249;48.094;-1.690;2022-09-09T13:49:28;62.92;57.07;71.33;;
41518;Laerm;27249;48.094;-1.690;2022-09-09T13:52:02;61.55;53.98;70.78;;
41518;Laerm;27249;48.094;-1.690;2022-09-09T13:54:27;61.60;55.21;69.01;;
41518;Laerm;27249;48.094;-1.690;2022-09-09T13:56:53;61.63;56.50;71.22;;
41518;Laerm;27249;48.094;-1.690;2022-09-09T13:59:20;69.00;55.20;84.31;;
41518;Laerm;27249;48.094;-1.690;2022-09-09T14:01:46;60.59;50.87;69.37;;
41518;Laerm;27249;48.094;-1.690;2022-09-09T14:04:12;60.44;52.38;72.46;;
41518;Laerm;27249;48.094;-1.690;2022-09-09T14:06:38;61.38;55.38;69.55;;
41518;Laerm;27249;48.094;-1.690;2022-09-09T14:09:07;59.49;52.70;67.82;;
41518;Laerm;27249;48.094;-1.690;2022-09-09T14:11:34;60.08;54.56;66.28;;
41518;Laerm;27249;48.094;-1.690;2022-09-09T14:13:59;59.47;51.91;67.53;;
41518;Laerm;27249;48.094;-1.690;2022-09-09T14:16:25;59.55;54.43;76.84;;
41518;Laerm;27249;48.094;-1.690;2022-09-09T14:18:52;59.16;52.92;64.61;;
41518;Laerm;27249;48.094;-1.690;2022-09-09T14:21:17;58.87;53.92;63.69;;
41518;Laerm;27249;48.094;-1.690;2022-09-09T14:23:43;59.40;52.20;77.04;;
41518;Laerm;27249;48.094;-1.690;2022-09-09T14:26:08;57.63;51.25;64.67;;
41518;Laerm;27249;48.094;-1.690;2022-09-09T14:28:34;57.62;51.72;64.34;;
41518;Laerm;27249;48.094;-1.690;2022-09-09T14:31:00;57.19;52.01;63.68;;
41518;Laerm;27249;48.094;-1.690;2022-09-09T14:33:26;57.18;51.37;71.83;;
41518;Laerm;27249;48.094;-1.690;2022-09-09T14:35:56;56.94;50.96;67.45;;
41518;Laerm;27249;48.094;-1.690;2022-09-09T14:38:22;56.05;51.57;65.22;;
41518;Laerm;27249;48.094;-1.690;2022-09-09T14:40:47;58.59;53.05;76.35;;
41518;Laerm;27249;48.094;-1.690;2022-09-09T14:43:12;61.17;52.00;84.23;;
41518;Laerm;27249;48.094;-1.690;2022-09-09T14:45:38;56.87;52.22;63.48;;
41518;Laerm;27249;48.094;-1.690;2022-09-09T14:48:03;56.37;51.27;71.32;;
41518;Laerm;27249;48.094;-1.690;2022-09-09T14:50:28;56.26;51.22;63.31;;
41518;Laerm;27249;48.094;-1.690;2022-09-09T14:52:54;57.14;50.36;66.91;;
41518;Laerm;27249;48.094;-1.690;2022-09-09T14:55:19;57.21;52.08;72.01;;
41518;Laerm;27249;48.094;-1.690;2022-09-09T14:57:44;56.64;51.82;63.59;;
41518;Laerm;27249;48.094;-1.690;2022-09-09T15:00:10;56.34;50.95;65.49;;
41518;Laerm;27249;48.094;-1.690;2022-09-09T15:02:36;58.11;50.24;67.98;;
41518;Laerm;27249;48.094;-1.690;2022-09-09T15:05:01;56.61;50.56;68.24;;
41518;Laerm;27249;48.094;-1.690;2022-09-09T15:07:27;61.91;51.21;88.67;;
41518;Laerm;27249;48.094;-1.690;2022-09-09T15:09:53;57.72;51.31;70.22;;
41518;Laerm;27249;48.094;-1.690;2022-09-09T15:12:19;56.54;51.15;66.13;;
41518;Laerm;27249;48.094;-1.690;2022-09-09T15:14:45;57.44;49.46;75.02;;
41518;Laerm;27249;48.094;-1.690;2022-09-09T15:17:11;57.54;50.66;71.13;;
41518;Laerm;27249;48.094;-1.690;2022-09-09T15:19:37;57.07;50.09;70.65;;
41518;Laerm;27249;48.094;-1.690;2022-09-09T15:22:03;57.21;51.35;72.95;;
41518;Laerm;27249;48.094;-1.690;2022-09-09T15:24:29;57.94;50.49;77.31;;
41518;Laerm;27249;48.094;-1.690;2022-09-09T15:26:55;55.31;50.09;64.74;;
41518;Laerm;27249;48.094;-1.690;2022-09-09T15:29:21;55.93;49.29;68.89;;